Time;durP1;ratioP1;P1;durP2;ratioP2;P2;SDS_P1;SDS_P2;PMS_P1;PMS_P2;Temp;Humidity;BMP_temperature;BMP_pressure;BME280_temperature;BME280_humidity;BME280_pressure;Samples;Min_cycle;Max_cycle;Signal;HPM_P1;HPM_P2
2021/09/28 00:00:28;;;;;;;;;;;13.30;91.20;;;;;;5034495;28;20407;-84
2021/09/28 00:02:54;;;;;;;4.78;1.35;;;13.30;91.10;;;;;;5050983;28;19912;-84
2021/09/28 00:05:20;;;;;;;6.43;1.30;;;13.20;91.20;;;;;;5033504;28;20127;-84
2021/09/28 00:07:46;;;;;;;9.05;1.70;;;13.20;91.20;;;;;;5050680;28;20040;-84
2021/09/28 00:10:12;;;;;;;11.75;1.77;;;13.20;91.20;;;;;;5016501;28;20470;-84
2021/09/28 00:12:38;;;;;;;9.38;1.90;;;13.30;91.20;;;;;;5049849;28;20033;-84
2021/09/28 00:15:09;;;;;;;4.63;1.52;;;13.20;91.20;;;;;;5037663;28;20257;-84
2021/09/28 00:17:35;;;;;;;10.55;1.70;;;13.20;91.20;;;;;;5024864;28;20545;-84
2021/09/28 00:20:00;;;;;;;8.30;1.60;;;13.20;91.20;;;;;;5051769;28;20112;-84
2021/09/28 00:22:26;;;;;;;11.23;1.67;;;13.20;91.20;;;;;;5037450;28;20175;-84
2021/09/28 00:24:51;;;;;;;10.95;1.90;;;13.20;91.30;;;;;;5038058;28;20040;-85
2021/09/28 00:27:17;;;;;;;14.50;2.40;;;13.20;91.30;;;;;;5055080;28;20039;-84
2021/09/28 00:29:43;;;;;;;7.65;1.90;;;13.20;91.40;;;;;;5037524;28;20025;-84
2021/09/28 00:32:08;;;;;;;9.30;1.98;;;13.10;91.30;;;;;;5036893;28;20029;-83
2021/09/28 00:34:38;;;;;;;7.55;1.95;;;13.10;91.30;;;;;;5053481;28;20033;-84
2021/09/28 00:37:04;;;;;;;15.10;2.40;;;13.10;91.40;;;;;;5034518;28;20075;-84
2021/09/28 00:39:29;;;;;;;11.75;2.10;;;13.10;91.30;;;;;;5017203;28;20565;-84
2021/09/28 00:41:55;;;;;;;9.65;2.25;;;13.10;91.30;;;;;;5042984;28;20048;-84
2021/09/28 00:44:33;;;;;;;11.05;2.20;;;13.10;91.30;;;;;;5055093;28;20052;-84
2021/09/28 00:46:59;;;;;;;10.77;2.55;;;13.10;91.30;;;;;;5054616;28;20087;-83
2021/09/28 00:49:25;;;;;;;10.35;2.20;;;13.10;91.30;;;;;;5036902;28;20029;-83
2021/09/28 00:51:50;;;;;;;14.38;2.33;;;13.10;91.30;;;;;;5053895;28;20025;-84
2021/09/28 00:54:17;;;;;;;12.73;2.70;;;13.10;91.30;;;;;;5018708;28;20033;-85
2021/09/28 00:56:43;;;;;;;9.43;2.28;;;13.00;91.30;;;;;;5040115;28;20029;-84
2021/09/28 00:59:09;;;;;;;15.70;1.90;;;13.00;91.30;;;;;;5021562;28;20029;-84
2021/09/28 01:01:35;;;;;;;14.75;2.47;;;13.00;91.30;;;;;;5055053;28;20095;-84
2021/09/28 01:04:01;;;;;;;11.25;2.30;;;13.00;91.40;;;;;;5055742;28;20527;-84
2021/09/28 01:06:27;;;;;;;10.85;2.47;;;13.00;91.40;;;;;;5054167;28;20053;-83
2021/09/28 01:08:53;;;;;;;12.27;2.33;;;13.00;91.40;;;;;;5037504;28;20075;-84
2021/09/28 01:11:19;;;;;;;8.70;2.55;;;13.00;91.40;;;;;;5053648;28;20516;-83
2021/09/28 01:13:45;;;;;;;11.38;2.40;;;13.00;91.30;;;;;;5021158;28;20026;-84
2021/09/28 01:16:12;;;;;;;9.27;2.15;;;13.00;91.40;;;;;;5054576;28;20021;-84
2021/09/28 01:18:39;;;;;;;9.90;2.47;;;12.90;91.30;;;;;;5020415;28;20122;-84
2021/09/28 01:21:07;;;;;;;9.80;2.40;;;12.90;91.30;;;;;;5053629;28;20036;-84
2021/09/28 01:23:32;;;;;;;10.70;2.80;;;12.90;91.30;;;;;;5054102;28;20086;-84
2021/09/28 01:25:58;;;;;;;15.60;2.85;;;12.90;91.30;;;;;;5031298;28;20033;-84
2021/09/28 01:28:24;;;;;;;11.65;2.33;;;12.80;91.60;;;;;;5018290;28;20039;-84
2021/09/28 01:30:49;;;;;;;19.77;2.50;;;12.80;91.30;;;;;;5053623;28;20025;-84
2021/09/28 01:33:16;;;;;;;12.75;2.47;;;12.90;91.30;;;;;;5035158;28;20036;-84
2021/09/28 01:35:42;;;;;;;12.55;2.10;;;12.80;91.40;;;;;;5053863;28;20120;-84
2021/09/28 01:38:07;;;;;;;14.05;2.40;;;12.80;91.40;;;;;;5035459;28;20068;-84
2021/09/28 01:40:34;;;;;;;15.35;2.60;;;12.80;91.40;;;;;;5019360;28;20060;-84
2021/09/28 01:43:26;;;;;;;6.88;2.10;;;12.80;91.40;;;;;;5052151;28;20037;-84
2021/09/28 01:46:00;;;;;;;13.40;2.47;;;12.70;91.40;;;;;;5035129;28;20640;-83
2021/09/28 01:48:44;;;;;;;9.75;2.05;;;12.70;91.50;;;;;;5053787;28;20036;-83
2021/09/28 01:51:09;;;;;;;8.52;1.92;;;12.80;91.50;;;;;;5054056;28;20036;-84
2021/09/28 01:53:36;;;;;;;7.90;1.90;;;12.70;91.40;;;;;;5036212;28;20040;-84
2021/09/28 01:56:01;;;;;;;9.82;2.60;;;12.70;91.40;;;;;;5053988;28;20031;-84
2021/09/28 01:58:27;;;;;;;14.32;2.38;;;12.80;91.50;;;;;;5036082;28;20112;-85
2021/09/28 02:00:53;;;;;;;16.63;3.05;;;12.80;91.50;;;;;;5054275;28;20033;-84
2021/09/28 02:03:19;;;;;;;11.23;2.80;;;12.70;91.40;;;;;;5035978;28;20420;-84
2021/09/28 02:05:44;;;;;;;14.57;2.83;;;12.80;91.40;;;;;;5054072;28;20036;-84
2021/09/28 02:08:10;;;;;;;16.77;2.80;;;12.80;91.40;;;;;;5035860;28;20049;-84
2021/09/28 02:10:36;;;;;;;13.55;2.70;;;12.70;91.50;;;;;;5018455;28;20026;-83
2021/09/28 02:13:02;;;;;;;12.45;2.33;;;12.80;91.50;;;;;;5053782;28;20629;-84
2021/09/28 02:15:28;;;;;;;7.80;2.20;;;12.80;91.50;;;;;;5036384;28;20086;-84
2021/09/28 02:17:54;;;;;;;8.55;2.25;;;12.70;91.50;;;;;;5053455;28;20111;-84
2021/09/28 02:20:19;;;;;;;10.88;2.45;;;12.80;91.50;;;;;;5052516;28;20040;-84
2021/09/28 02:22:45;;;;;;;10.45;2.40;;;12.70;91.50;;;;;;5020581;28;20053;-84
2021/09/28 02:25:13;;;;;;;7.53;2.15;;;12.70;91.50;;;;;;5054698;28;20083;-84
2021/09/28 02:27:40;;;;;;;10.73;2.35;;;12.80;91.50;;;;;;5053370;28;20032;-84
2021/09/28 02:30:06;;;;;;;12.05;2.17;;;12.70;91.40;;;;;;5036967;28;20071;-84
2021/09/28 02:32:32;;;;;;;12.50;2.40;;;12.80;91.40;;;;;;5053059;28;20044;-85
2021/09/28 02:34:57;;;;;;;11.95;2.08;;;12.70;91.40;;;;;;5054289;28;20025;-84
2021/09/28 02:37:23;;;;;;;14.50;2.15;;;12.80;91.40;;;;;;5054373;28;20031;-84
2021/09/28 02:39:49;;;;;;;14.60;2.20;;;12.70;91.40;;;;;;5054349;28;20539;-83
2021/09/28 02:42:14;;;;;;;9.85;2.63;;;12.70;91.40;;;;;;5054295;28;20472;-83
2021/09/28 02:44:40;;;;;;;10.38;2.50;;;12.70;91.40;;;;;;5052061;28;20052;-84
2021/09/28 02:47:06;;;;;;;10.60;2.03;;;12.70;91.40;;;;;;5052300;28;20482;-84
2021/09/28 02:49:32;;;;;;;9.95;2.05;;;12.70;91.60;;;;;;5033927;28;20060;-84
2021/09/28 02:51:57;;;;;;;12.15;2.40;;;12.70;91.30;;;;;;5052691;28;20059;-84
2021/09/28 02:54:23;;;;;;;10.50;2.33;;;12.70;91.70;;;;;;5051035;28;20058;-84
2021/09/28 02:56:49;;;;;;;7.82;2.28;;;12.60;91.40;;;;;;5036251;28;20041;-84
2021/09/28 02:59:14;;;;;;;12.25;2.42;;;12.60;91.40;;;;;;5036006;28;20048;-84
2021/09/28 03:01:40;;;;;;;10.05;2.15;;;12.70;91.40;;;;;;5035940;28;20029;-84
2021/09/28 03:04:06;;;;;;;9.48;2.20;;;12.70;91.40;;;;;;5036064;28;20049;-84
2021/09/28 03:06:32;;;;;;;8.82;2.30;;;12.60;91.40;;;;;;5035991;28;20567;-85
2021/09/28 03:08:58;;;;;;;11.60;2.10;;;12.60;91.40;;;;;;5019519;28;20035;-84
2021/09/28 03:11:27;;;;;;;8.98;1.77;;;12.60;91.40;;;;;;5035977;28;20025;-84
2021/09/28 03:13:53;;;;;;;;;;;12.60;91.40;;;;;;5036814;28;20031;-84
2021/09/28 03:16:20;;;;;;;12.88;2.28;;;12.60;91.40;;;;;;5053719;28;19920;-84
2021/09/28 03:18:45;;;;;;;12.32;2.30;;;12.50;91.40;;;;;;5051002;28;20029;-84
2021/09/28 03:21:11;;;;;;;14.82;2.40;;;12.50;91.40;;;;;;5053730;28;20470;-84
2021/09/28 03:23:36;;;;;;;13.90;2.60;;;12.50;91.40;;;;;;5035854;28;20565;-85
2021/09/28 03:26:02;;;;;;;11.95;1.80;;;12.50;91.40;;;;;;5052251;28;20060;-84
2021/09/28 03:28:28;;;;;;;10.70;2.72;;;12.50;91.40;;;;;;5035355;28;20425;-85
2021/09/28 03:30:54;;;;;;;12.02;2.47;;;12.50;91.40;;;;;;5035985;28;20025;-84
2021/09/28 03:33:19;;;;;;;10.05;2.15;;;12.50;91.40;;;;;;5053215;28;20095;-84
2021/09/28 03:35:45;;;;;;;10.98;2.00;;;12.50;91.50;;;;;;5052288;28;20072;-85
2021/09/28 03:38:11;;;;;;;12.25;2.50;;;12.40;91.50;;;;;;5035579;28;20032;-84
2021/09/28 03:40:39;;;;;;;10.15;2.20;;;12.40;91.40;;;;;;5053522;28;20390;-84
2021/09/28 03:43:06;;;;;;;10.13;2.03;;;12.40;91.50;;;;;;5052021;28;20143;-85
2021/09/28 03:45:33;;;;;;;9.10;2.20;;;12.30;91.40;;;;;;5052136;28;20295;-85
2021/09/28 03:47:58;;;;;;;8.82;2.20;;;12.30;91.50;;;;;;5051262;28;20025;-85
2021/09/28 03:50:25;;;;;;;13.95;2.47;;;12.30;91.50;;;;;;5035664;28;20029;-84
2021/09/28 03:52:51;;;;;;;7.38;2.10;;;12.30;91.50;;;;;;5053078;28;20481;-84
2021/09/28 03:55:19;;;;;;;9.57;2.65;;;12.20;91.50;;;;;;5053184;28;20021;-83
2021/09/28 03:57:52;;;;;;;8.07;2.10;;;12.20;91.50;;;;;;5035270;28;20036;-84
2021/09/28 04:00:20;;;;;;;10.23;2.60;;;12.20;91.50;;;;;;5035560;28;20024;-84
2021/09/28 04:02:45;;;;;;;5.97;1.77;;;12.20;91.50;;;;;;5053080;28;20025;-84
2021/09/28 04:05:12;;;;;;;9.95;1.83;;;12.20;91.60;;;;;;5052927;28;20043;-83
2021/09/28 04:07:38;;;;;;;8.05;1.85;;;12.10;91.50;;;;;;5035268;28;20115;-84
2021/09/28 04:10:09;;;;;;;8.63;2.20;;;12.10;91.50;;;;;;5053068;28;20021;-84
2021/09/28 04:12:35;;;;;;;12.40;2.20;;;12.10;91.60;;;;;;5034950;28;20429;-83
2021/09/28 04:15:01;;;;;;;7.20;2.20;;;12.10;91.60;;;;;;5051722;28;20043;-85
2021/09/28 04:17:27;;;;;;;7.93;2.08;;;12.00;91.60;;;;;;5034970;28;20032;-84
2021/09/28 04:19:53;;;;;;;10.55;2.15;;;12.00;91.50;;;;;;5035103;28;20025;-85
2021/09/28 04:22:20;;;;;;;9.43;2.10;;;12.00;91.50;;;;;;5035097;28;20443;-84
2021/09/28 04:24:46;;;;;;;9.27;2.42;;;12.00;91.50;;;;;;5051902;28;20078;-85
2021/09/28 04:27:11;;;;;;;7.32;1.85;;;12.00;91.50;;;;;;5052761;28;20108;-84
2021/09/28 04:29:38;;;;;;;12.38;2.17;;;12.00;91.60;;;;;;5051433;28;20033;-84
2021/09/28 04:32:04;;;;;;;7.50;2.20;;;11.90;91.60;;;;;;5052631;28;20477;-83
2021/09/28 04:34:30;;;;;;;15.30;2.42;;;11.90;91.50;;;;;;5034965;28;20037;-83
2021/09/28 04:36:56;;;;;;;6.85;2.20;;;11.90;91.50;;;;;;5035061;28;20392;-84
2021/09/28 04:39:21;;;;;;;8.13;2.05;;;11.80;91.50;;;;;;5017754;28;20537;-84
2021/09/28 04:41:47;;;;;;;14.07;2.15;;;11.80;91.60;;;;;;5052861;28;20029;-84
2021/09/28 04:44:13;;;;;;;12.15;3.17;;;11.80;91.50;;;;;;5052427;28;20551;-84
2021/09/28 04:46:38;;;;;;;8.25;1.80;;;11.70;91.50;;;;;;5052206;28;20064;-84
2021/09/28 04:49:04;;;;;;;10.00;2.38;;;11.70;91.50;;;;;;5027709;28;20049;-84
2021/09/28 04:51:30;;;;;;;6.85;1.80;;;11.70;91.50;;;;;;5039645;28;20039;-84
2021/09/28 04:53:55;;;;;;;8.93;2.33;;;11.70;91.80;;;;;;5034404;28;20025;-84
2021/09/28 04:56:21;;;;;;;11.63;2.22;;;11.70;91.60;;;;;;5050646;28;20039;-84
2021/09/28 04:58:47;;;;;;;18.60;2.60;;;11.60;91.50;;;;;;5052119;28;20056;-84
2021/09/28 05:01:14;;;;;;;9.07;2.22;;;11.60;91.80;;;;;;5056097;28;20022;-84
2021/09/28 05:03:39;;;;;;;9.88;2.17;;;11.60;91.70;;;;;;5018434;28;20017;-84
2021/09/28 05:06:05;;;;;;;6.72;2.10;;;11.60;91.70;;;;;;5048083;28;20486;-85
2021/09/28 05:08:31;;;;;;;9.13;2.17;;;11.60;91.70;;;;;;5055674;28;20066;-84
2021/09/28 05:10:56;;;;;;;13.18;2.88;;;11.50;91.70;;;;;;5056176;28;20469;-85
2021/09/28 05:13:22;;;;;;;10.55;2.17;;;11.50;91.70;;;;;;5055809;28;20025;-84
2021/09/28 05:15:48;;;;;;;10.23;2.17;;;11.50;92.00;;;;;;5020427;28;20021;-84
2021/09/28 05:18:13;;;;;;;12.82;2.25;;;11.50;91.70;;;;;;5052505;28;20041;-83
2021/09/28 05:20:39;;;;;;;10.45;2.13;;;11.50;91.70;;;;;;5054583;28;20048;-84
2021/09/28 05:23:05;;;;;;;8.27;1.75;;;11.40;91.70;;;;;;5053724;28;20484;-83
2021/09/28 05:25:30;;;;;;;9.82;2.10;;;11.40;91.80;;;;;;5055790;28;20394;-84
2021/09/28 05:27:56;;;;;;;8.32;2.00;;;11.40;91.80;;;;;;5055336;28;20054;-84
2021/09/28 05:30:23;;;;;;;5.97;1.92;;;11.40;91.80;;;;;;5037758;28;20022;-84
2021/09/28 05:32:49;;;;;;;8.57;2.50;;;11.40;91.70;;;;;;5037569;28;20511;-83
2021/09/28 05:35:14;;;;;;;12.82;2.30;;;11.40;91.70;;;;;;5019471;28;20057;-84
2021/09/28 05:37:40;;;;;;;13.32;2.28;;;11.40;91.70;;;;;;5038728;28;20081;-83
2021/09/28 05:40:06;;;;;;;11.70;2.35;;;11.40;91.70;;;;;;5029332;28;20028;-81
2021/09/28 05:42:32;;;;;;;9.30;2.13;;;11.40;91.70;;;;;;5020836;28;20440;-83
2021/09/28 05:44:58;;;;;;;5.72;1.73;;;11.40;91.70;;;;;;5053947;28;20108;-83
2021/09/28 05:47:24;;;;;;;7.05;1.90;;;11.30;91.70;;;;;;5038130;28;20154;-83
2021/09/28 05:49:51;;;;;;;7.30;1.85;;;11.30;91.70;;;;;;5037226;28;20029;-83
2021/09/28 05:52:17;;;;;;;6.88;1.92;;;11.40;91.70;;;;;;5036773;28;20029;-82
2021/09/28 05:54:49;;;;;;;12.95;2.30;;;11.30;91.70;;;;;;5034608;28;20116;-83
2021/09/28 05:57:20;;;;;;;9.63;1.77;;;11.30;91.70;;;;;;5052165;28;20033;-83
2021/09/28 05:59:46;;;;;;;6.72;1.88;;;11.40;91.70;;;;;;5039112;28;20033;-83
2021/09/28 06:02:13;;;;;;;10.43;2.20;;;11.40;91.70;;;;;;5053569;28;20462;-83
2021/09/28 06:04:39;;;;;;;7.05;1.80;;;11.40;91.70;;;;;;5033438;28;20056;-84
2021/09/28 06:07:05;;;;;;;10.65;2.10;;;11.40;91.70;;;;;;5044175;28;20120;-83
2021/09/28 06:09:36;;;;;;;7.28;1.75;;;11.40;91.70;;;;;;5055062;28;20037;-83
2021/09/28 06:12:03;;;;;;;7.90;2.30;;;11.40;91.70;;;;;;5036766;28;20052;-83
2021/09/28 06:14:29;;;;;;;10.95;1.88;;;11.50;91.70;;;;;;5004490;28;20037;-83
2021/09/28 06:16:54;;;;;;;7.28;1.77;;;11.50;91.70;;;;;;5054997;28;20047;-83
2021/09/28 06:19:20;;;;;;;11.77;1.90;;;11.50;91.70;;;;;;5036915;28;20100;-82
2021/09/28 06:21:45;;;;;;;9.40;2.05;;;11.60;91.70;;;;;;5053546;28;20037;-82
2021/09/28 06:24:11;;;;;;;10.15;2.20;;;11.60;91.60;;;;;;5053742;28;20030;-82
2021/09/28 06:26:37;;;;;;;8.77;2.00;;;11.60;91.60;;;;;;5036486;28;20481;-82
2021/09/28 06:29:02;;;;;;;7.60;1.60;;;11.60;91.60;;;;;;5053646;28;20025;-82
2021/09/28 06:31:28;;;;;;;7.45;1.73;;;11.70;91.60;;;;;;5054746;28;20033;-83
2021/09/28 06:33:54;;;;;;;6.65;1.90;;;11.70;91.60;;;;;;5053438;28;20029;-83
2021/09/28 06:36:19;;;;;;;6.07;2.00;;;11.80;91.70;;;;;;5053356;28;20028;-83
2021/09/28 06:38:45;;;;;;;10.00;1.70;;;11.80;91.60;;;;;;5036671;28;20124;-84
2021/09/28 06:41:11;;;;;;;9.70;1.70;;;11.90;91.70;;;;;;5036671;28;20028;-83
2021/09/28 06:43:36;;;;;;;6.18;1.50;;;11.90;91.70;;;;;;5052835;28;20389;-83
2021/09/28 06:46:02;;;;;;;8.45;2.05;;;12.00;91.60;;;;;;5036348;28;20544;-83
2021/09/28 06:48:28;;;;;;;9.55;2.00;;;12.10;91.70;;;;;;5054054;28;20035;-83
2021/09/28 06:50:54;;;;;;;9.50;1.88;;;12.20;91.70;;;;;;5053206;28;20036;-84
2021/09/28 06:53:19;;;;;;;12.80;1.60;;;12.30;91.60;;;;;;5053856;28;20036;-84
2021/09/28 06:55:45;;;;;;;11.15;2.10;;;12.40;91.60;;;;;;5054245;28;20029;-84
2021/09/28 06:58:10;;;;;;;9.15;1.95;;;12.50;91.60;;;;;;5053022;28;20389;-84
2021/09/28 07:00:37;;;;;;;9.45;1.70;;;12.60;91.50;;;;;;5036014;28;20032;-83
2021/09/28 07:03:05;;;;;;;10.65;2.35;;;12.80;91.40;;;;;;5054041;28;20029;-82
2021/09/28 07:05:32;;;;;;;13.15;2.20;;;12.90;91.20;;;;;;5053936;28;20044;-83
2021/09/28 07:07:58;;;;;;;10.93;1.90;;;13.00;91.10;;;;;;5053903;28;20029;-83
2021/09/28 07:10:24;;;;;;;11.57;1.88;;;13.10;91.00;;;;;;5053937;28;20099;-83
2021/09/28 07:12:49;;;;;;;5.93;1.48;;;13.20;91.00;;;;;;5035642;28;20075;-83
2021/09/28 07:15:16;;;;;;;6.28;2.10;;;13.40;90.90;;;;;;5053839;28;20040;-83
2021/09/28 07:17:45;;;;;;;9.88;1.95;;;13.50;90.80;;;;;;5035862;28;20036;-83
2021/09/28 07:20:11;;;;;;;9.02;1.60;;;13.60;90.60;;;;;;5036560;28;20112;-83
2021/09/28 07:22:37;;;;;;;9.15;1.88;;;13.80;90.50;;;;;;5018935;28;20033;-84
2021/09/28 07:25:03;;;;;;;13.55;2.22;;;13.90;90.40;;;;;;5053091;28;20077;-83
2021/09/28 07:27:29;;;;;;;11.00;1.90;;;14.00;90.30;;;;;;5053693;28;20094;-83
2021/09/28 07:29:55;;;;;;;12.40;2.20;;;14.10;90.10;;;;;;5035821;28;20082;-83
2021/09/28 07:32:22;;;;;;;10.48;1.80;;;14.30;89.90;;;;;;5035509;28;20116;-82
2021/09/28 07:34:48;;;;;;;11.20;1.70;;;14.40;89.50;;;;;;5035726;28;20132;-82
2021/09/28 07:37:15;;;;;;;6.60;1.50;;;14.50;89.00;;;;;;5053437;28;20108;-82
2021/09/28 07:39:40;;;;;;;7.43;1.85;;;14.60;88.80;;;;;;5053653;28;20075;-82
2021/09/28 07:42:06;;;;;;;12.45;1.80;;;14.80;88.40;;;;;;5035429;28;20037;-82
2021/09/28 07:44:32;;;;;;;10.00;2.28;;;14.80;88.00;;;;;;5035487;28;20024;-82
2021/09/28 07:46:58;;;;;;;13.15;1.65;;;14.90;87.90;;;;;;5051704;28;20059;-82
2021/09/28 07:49:27;;;;;;;11.32;2.10;;;15.00;87.50;;;;;;5035098;28;20021;-81
2021/09/28 07:51:53;;;;;;;;;;;15.10;87.30;;;;;;5053827;28;20025;-82
2021/09/28 07:54:19;;;;;;;10.07;1.98;;;15.20;87.10;;;;;;5053201;28;20062;-82
2021/09/28 07:56:45;;;;;;;9.32;1.90;;;15.30;86.70;;;;;;5034233;28;20159;-83
2021/09/28 07:59:11;;;;;;;12.05;1.88;;;15.30;86.40;;;;;;5015175;28;20037;-82
2021/09/28 08:01:37;;;;;;;8.13;2.00;;;15.40;85.40;;;;;;5015244;28;20156;-82
2021/09/28 08:04:03;;;;;;;6.35;1.80;;;15.50;85.60;;;;;;5034739;28;20048;-82
2021/09/28 08:06:29;;;;;;;9.35;2.10;;;15.70;85.40;;;;;;5052775;28;20052;-82
2021/09/28 08:08:55;;;;;;;10.68;1.95;;;15.80;84.90;;;;;;5035028;28;20029;-79
2021/09/28 08:11:21;;;;;;;13.50;2.10;;;15.80;84.00;;;;;;5029240;28;20037;-81
2021/09/28 08:13:47;;;;;;;10.20;1.90;;;15.90;84.20;;;;;;5033086;28;20021;-82
2021/09/28 08:16:12;;;;;;;8.60;1.90;;;15.90;84.40;;;;;;5031840;28;20109;-81
2021/09/28 08:18:38;;;;;;;8.63;2.05;;;16.00;84.60;;;;;;5047847;28;20075;-81
2021/09/28 08:21:04;;;;;;;12.25;2.30;;;16.10;84.10;;;;;;5053062;28;20035;-82
2021/09/28 08:23:30;;;;;;;9.35;1.83;;;16.20;83.30;;;;;;5052638;28;20111;-82
2021/09/28 08:31:07;;;;;;;13.80;2.05;;;16.40;82.40;;;;;;5051767;28;20064;-77
2021/09/28 08:33:33;;;;;;;14.15;2.10;;;16.50;82.80;;;;;;5051345;28;20481;-77
2021/09/28 08:36:00;;;;;;;12.25;2.22;;;16.50;81.80;;;;;;5055314;28;20087;-77
2021/09/28 08:38:30;;;;;;;13.82;2.45;;;16.60;82.30;;;;;;5055100;28;20477;-78
2021/09/28 08:41:00;;;;;;;10.27;1.73;;;16.60;82.50;;;;;;5018200;28;20037;-78
2021/09/28 08:43:26;;;;;;;7.07;1.67;;;16.70;82.60;;;;;;5056013;28;20039;-78
2021/09/28 08:45:52;;;;;;;9.18;2.00;;;16.80;82.70;;;;;;5053935;28;20021;-78
2021/09/28 08:48:19;;;;;;;11.18;2.05;;;16.80;82.60;;;;;;5033622;28;20053;-78
2021/09/28 08:50:49;;;;;;;12.40;2.20;;;17.00;81.90;;;;;;5039393;28;20808;-78
2021/09/28 08:53:16;;;;;;;16.17;2.00;;;17.10;81.60;;;;;;5037620;28;20056;-80
2021/09/28 08:55:42;;;;;;;10.13;2.05;;;17.10;80.80;;;;;;5055412;28;20538;-83
2021/09/28 08:58:19;;;;;;;6.15;1.70;;;17.10;80.80;;;;;;5056310;28;20029;-78
2021/09/28 09:00:45;;;;;;;10.38;1.88;;;17.10;80.60;;;;;;5038215;28;20039;-78
2021/09/28 09:03:28;;;;;;;11.18;1.73;;;17.20;80.80;;;;;;5034725;28;20425;-78
2021/09/28 09:05:59;;;;;;;10.10;1.70;;;17.20;80.30;;;;;;5022972;28;20072;-78
2021/09/28 09:08:27;;;;;;;13.43;2.05;;;17.30;80.00;;;;;;5055906;28;20032;-78
2021/09/28 09:11:21;;;;;;;12.75;2.00;;;17.30;79.90;;;;;;5054671;28;20024;-78
2021/09/28 09:13:50;;;;;;;13.05;2.22;;;17.20;79.50;;;;;;5054728;28;20505;-78
2021/09/28 09:16:17;;;;;;;13.15;2.38;;;17.20;78.90;;;;;;5037326;28;20494;-78
2021/09/28 09:18:49;;;;;;;15.90;2.40;;;17.20;79.70;;;;;;5055286;28;20037;-78
2021/09/28 09:21:15;;;;;;;10.63;2.20;;;17.20;80.10;;;;;;5037980;28;20100;-78
2021/09/28 09:23:50;;;;;;;9.90;2.08;;;17.20;80.20;;;;;;5055519;28;20029;-78
2021/09/28 09:26:21;;;;;;;10.30;1.60;;;17.20;80.30;;;;;;5055733;28;20021;-77
2021/09/28 09:28:52;;;;;;;9.82;1.90;;;17.30;80.40;;;;;;5017640;28;20091;-78
2021/09/28 09:31:33;;;;;;;8.35;1.95;;;17.40;80.80;;;;;;5049833;28;20036;-78
2021/09/28 09:34:16;;;;;;;11.20;1.80;;;17.50;80.50;;;;;;5055334;28;20021;-78
2021/09/28 09:37:05;;;;;;;9.50;1.83;;;17.50;78.70;;;;;;5055431;28;20035;-78
2021/09/28 09:39:53;;;;;;;7.60;1.77;;;17.60;78.90;;;;;;5036695;28;20612;-78
2021/09/28 09:42:19;;;;;;;15.20;2.72;;;17.60;78.60;;;;;;5055604;28;20028;-78
2021/09/28 09:44:46;;;;;;;13.23;2.13;;;17.60;79.20;;;;;;5044892;28;20056;-79
2021/09/28 09:47:34;;;;;;;14.00;2.30;;;17.60;78.40;;;;;;5032972;28;20045;-78
2021/09/28 09:50:12;;;;;;;;;;;17.60;77.90;;;;;;5035851;28;20812;-78
2021/09/28 09:52:58;;;;;;;12.50;2.22;;;17.60;77.50;;;;;;5034133;28;20336;-78
2021/09/28 09:55:28;;;;;;;10.27;2.10;;;17.70;78.20;;;;;;5035196;28;20049;-78
2021/09/28 09:57:54;;;;;;;11.07;1.90;;;17.70;78.80;;;;;;5033980;28;20029;-78
2021/09/28 10:00:21;;;;;;;8.05;1.65;;;17.80;78.30;;;;;;5035237;28;20026;-78
2021/09/28 10:02:47;;;;;;;8.73;1.63;;;17.80;77.70;;;;;;5035439;28;20041;-78
2021/09/28 10:05:12;;;;;;;12.75;2.08;;;17.80;77.80;;;;;;5035005;28;20026;-78
2021/09/28 10:07:39;;;;;;;12.23;1.70;;;17.80;77.80;;;;;;5034888;28;20084;-78
2021/09/28 10:10:16;;;;;;;10.77;1.92;;;17.90;78.30;;;;;;5035051;28;20120;-78
2021/09/28 10:12:42;;;;;;;9.40;1.70;;;18.00;77.40;;;;;;5034885;28;20033;-79
2021/09/28 10:15:10;;;;;;;11.80;1.85;;;18.00;77.80;;;;;;5017269;28;20029;-78
2021/09/28 10:17:41;;;;;;;12.50;1.65;;;18.00;77.20;;;;;;5033610;28;20044;-78
2021/09/28 10:20:09;;;;;;;11.85;1.67;;;18.00;76.00;;;;;;5052141;28;20542;-78
2021/09/28 10:22:52;;;;;;;12.18;1.73;;;18.00;76.90;;;;;;5054306;28;20028;-78
2021/09/28 10:25:21;;;;;;;10.88;2.10;;;18.10;76.80;;;;;;5017220;28;20025;-79
2021/09/28 10:27:53;;;;;;;;;;;18.10;76.80;;;;;;5044643;28;20424;-79
2021/09/28 10:30:31;;;;;;;13.50;1.65;;;18.20;77.10;;;;;;5036106;28;19946;-79
2021/09/28 10:32:59;;;;;;;9.93;1.50;;;18.20;76.40;;;;;;5049744;28;20315;-78
2021/09/28 10:35:26;;;;;;;9.10;1.80;;;18.40;76.70;;;;;;5041148;28;20260;-78
2021/09/28 10:38:01;;;;;;;11.18;1.98;;;18.40;76.60;;;;;;5051805;28;20489;-78
2021/09/28 10:40:30;;;;;;;14.02;1.67;;;18.50;76.10;;;;;;5053350;28;20098;-78
2021/09/28 10:43:23;;;;;;;13.15;1.70;;;18.50;75.30;;;;;;5036291;28;20021;-79
2021/09/28 10:45:49;;;;;;;15.27;2.78;;;18.50;74.20;;;;;;5050657;28;20415;-78
2021/09/28 10:48:23;;;;;;;14.60;1.98;;;18.50;74.10;;;;;;5002689;28;20047;-78
2021/09/28 10:51:14;;;;;;;11.02;1.85;;;18.50;73.50;;;;;;5053626;28;20028;-78
2021/09/28 10:53:51;;;;;;;7.03;1.48;;;18.60;74.60;;;;;;5016280;28;20038;-78
2021/09/28 10:56:18;;;;;;;12.98;1.73;;;18.60;74.90;;;;;;5032640;28;20452;-78
2021/09/28 10:58:57;;;;;;;15.15;1.83;;;18.60;74.10;;;;;;5016324;28;20044;-78
2021/09/28 11:01:26;;;;;;;10.55;1.40;;;18.60;73.50;;;;;;5051526;28;20017;-78
2021/09/28 11:04:03;;;;;;;17.65;1.85;;;18.60;74.20;;;;;;5052354;28;20680;-78
2021/09/28 11:06:41;;;;;;;13.02;1.85;;;18.60;74.50;;;;;;5030289;28;20162;-78
2021/09/28 11:09:07;;;;;;;14.02;1.88;;;18.60;72.60;;;;;;5032116;28;20075;-79
2021/09/28 11:11:33;;;;;;;10.18;1.92;;;18.60;72.60;;;;;;5033415;28;20029;-78
2021/09/28 11:14:01;;;;;;;12.13;1.65;;;18.60;73.90;;;;;;5015832;28;20032;-78
2021/09/28 11:16:27;;;;;;;9.43;1.40;;;18.70;73.90;;;;;;5033750;28;20421;-78
2021/09/28 11:18:58;;;;;;;13.27;1.75;;;18.70;73.30;;;;;;5044899;28;20037;-78
2021/09/28 11:21:25;;;;;;;10.50;1.80;;;18.70;72.80;;;;;;5031579;28;20532;-78
2021/09/28 11:23:55;;;;;;;11.98;2.08;;;18.70;72.40;;;;;;5015243;28;20033;-78
2021/09/28 11:26:38;;;;;;;11.50;1.70;;;18.60;71.60;;;;;;5014851;28;20539;-78
2021/09/28 11:29:04;;;;;;;12.52;2.03;;;18.60;71.50;;;;;;5032745;28;20100;-78
2021/09/28 11:31:36;;;;;;;12.85;1.98;;;18.70;72.20;;;;;;5031589;28;20025;-78
2021/09/28 11:34:02;;;;;;;9.43;2.00;;;18.70;70.70;;;;;;5036960;28;20445;-78
2021/09/28 11:36:36;;;;;;;11.43;1.67;;;18.60;71.10;;;;;;5034332;28;20057;-78
2021/09/28 11:39:04;;;;;;;10.10;1.83;;;18.70;71.40;;;;;;5049422;28;20501;-78
2021/09/28 11:41:34;;;;;;;12.40;1.85;;;18.70;71.60;;;;;;5031986;28;20078;-78
2021/09/28 11:44:00;;;;;;;10.75;1.63;;;18.70;71.40;;;;;;5035681;28;20040;-78
2021/09/28 11:46:28;;;;;;;13.18;2.30;;;18.80;71.30;;;;;;5018360;28;20021;-78
2021/09/28 11:49:05;;;;;;;12.80;1.83;;;18.80;69.90;;;;;;5052566;28;20025;-78
2021/09/28 11:51:37;;;;;;;12.50;1.85;;;18.80;70.70;;;;;;5034129;28;20121;-78
2021/09/28 11:54:07;;;;;;;10.10;1.63;;;18.90;72.20;;;;;;5014443;28;20025;-78
2021/09/28 11:56:39;;;;;;;12.55;2.10;;;19.00;72.20;;;;;;5031970;28;20025;-78
2021/09/28 11:59:13;;;;;;;9.52;1.90;;;19.00;71.10;;;;;;5032065;28;20040;-78
2021/09/28 12:01:39;;;;;;;10.25;1.55;;;19.00;71.30;;;;;;5035457;28;20033;-78
2021/09/28 12:07:09;;;;;;;11.02;1.60;;;19.20;70.10;;;;;;5051648;28;20040;-78
2021/09/28 12:09:34;;;;;;;14.25;2.35;;;19.20;69.90;;;;;;5051732;28;20049;-78
2021/09/28 12:12:04;;;;;;;12.50;2.00;;;19.30;68.70;;;;;;5051500;28;20052;-78
2021/09/28 12:14:42;;;;;;;6.70;1.70;;;19.30;68.40;;;;;;5051429;28;20029;-78
2021/09/28 12:17:12;;;;;;;13.65;1.98;;;19.30;67.80;;;;;;5033430;28;20037;-78
2021/09/28 12:19:41;;;;;;;7.82;1.33;;;19.30;67.80;;;;;;5051459;28;20026;-78
2021/09/28 12:22:07;;;;;;;;;;;19.30;68.20;;;;;;5051808;28;20033;-78
2021/09/28 12:24:53;;;;;;;7.80;1.60;;;19.30;66.30;;;;;;5016811;28;19915;-78
2021/09/28 12:27:19;;;;;;;10.32;1.80;;;19.30;66.70;;;;;;5051141;28;20029;-78
2021/09/28 12:29:47;;;;;;;7.65;1.80;;;19.30;66.10;;;;;;5033410;28;20052;-78
2021/09/28 12:32:25;;;;;;;12.02;2.20;;;19.30;66.90;;;;;;5017152;28;20432;-78
2021/09/28 12:34:56;;;;;;;15.80;2.10;;;19.40;67.70;;;;;;5033810;28;20025;-78
2021/09/28 12:37:26;;;;;;;8.35;2.08;;;19.50;67.20;;;;;;5033647;28;20032;-78
2021/09/28 12:40:02;;;;;;;11.77;2.05;;;19.50;67.90;;;;;;5051492;28;20040;-78
2021/09/28 12:42:28;;;;;;;14.50;1.85;;;19.50;66.60;;;;;;5051591;28;20039;-78
2021/09/28 12:45:08;;;;;;;9.88;2.00;;;19.50;66.30;;;;;;5050458;28;20063;-78
2021/09/28 12:47:37;;;;;;;9.60;2.00;;;19.50;67.40;;;;;;5051350;28;20166;-78
2021/09/28 12:50:27;;;;;;;10.00;1.85;;;19.50;66.80;;;;;;5033553;28;20033;-78
2021/09/28 12:52:59;;;;;;;12.73;1.80;;;19.50;66.00;;;;;;5051025;28;20049;-78
2021/09/28 12:55:25;;;;;;;8.20;1.73;;;19.50;67.90;;;;;;5050695;28;20025;-79